createdAt,value
2024-04-24T00:02:19.778Z,58.85
2024-04-24T00:04:47.887Z,58.85
2024-04-24T00:07:16.378Z,59.23
2024-04-24T00:09:44.238Z,59.09
2024-04-24T00:12:12.080Z,62.27
2024-04-24T00:14:39.988Z,67.75
2024-04-24T00:17:07.855Z,69.31
2024-04-24T00:19:35.695Z,68.48
2024-04-24T00:22:03.482Z,67.04
2024-04-24T00:24:31.250Z,65.33
2024-04-24T00:26:59.105Z,64.55
2024-04-24T00:29:27.399Z,64.26
2024-04-24T00:31:55.490Z,63.24
2024-04-24T00:34:23.333Z,62.01
2024-04-24T00:36:51.115Z,61.38
2024-04-24T00:39:19.039Z,60.87
2024-04-24T00:41:46.846Z,59.76
2024-04-24T00:44:15.140Z,57.85
2024-04-24T00:46:43.708Z,57.19
2024-04-24T00:49:11.768Z,57.52
2024-04-24T00:51:40.157Z,57.85
2024-04-24T00:54:07.935Z,59.77
2024-04-24T00:56:35.791Z,59.08
2024-04-24T00:59:03.576Z,58.78
2024-04-24T01:01:31.602Z,59.35
2024-04-24T01:03:59.561Z,58.57
2024-04-24T01:06:27.452Z,58.13
2024-04-24T01:08:55.313Z,58.22
2024-04-24T01:11:23.315Z,58.62
2024-04-24T01:13:51.349Z,59.90
2024-04-24T01:16:21.841Z,63.38
2024-04-24T01:19:02.586Z,68.58
2024-04-24T01:22:01.614Z,70.25
2024-04-24T01:24:34.221Z,68.73
2024-04-24T01:27:01.990Z,67.77
2024-04-24T01:29:30.390Z,66.33
2024-04-24T01:31:58.223Z,65.64
2024-04-24T01:34:26.165Z,64.65
2024-04-24T01:36:53.962Z,63.78
2024-04-24T01:39:21.943Z,62.85
2024-04-24T01:41:49.801Z,61.87
2024-04-24T01:44:17.708Z,61.80
2024-04-24T01:46:45.604Z,60.84
2024-04-24T01:49:13.560Z,60.56
2024-04-24T01:51:41.403Z,60.66
2024-04-24T01:54:09.233Z,60.43
2024-04-24T01:56:37.111Z,60.12
2024-04-24T01:59:04.823Z,59.81
2024-04-24T02:01:32.631Z,58.88
2024-04-24T02:04:00.564Z,57.03
2024-04-24T02:06:28.491Z,57.18
2024-04-24T02:08:56.358Z,59.19
2024-04-24T02:11:24.178Z,60.61
2024-04-24T02:13:52.655Z,63.37
2024-04-24T02:16:20.449Z,65.86
2024-04-24T02:18:48.461Z,66.09
2024-04-24T02:21:16.475Z,65.14
2024-04-24T02:23:44.338Z,63.91
2024-04-24T02:26:12.412Z,64.10
2024-04-24T02:28:40.295Z,64.30
2024-04-24T02:31:08.035Z,64.07
2024-04-24T02:33:36.126Z,62.38
2024-04-24T02:36:04.522Z,62.21
2024-04-24T02:38:32.236Z,61.52
2024-04-24T02:41:00.208Z,63.14
2024-04-24T02:43:28.125Z,63.19
2024-04-24T02:45:56.650Z,63.50
2024-04-24T02:48:24.430Z,62.05
2024-04-24T02:50:52.256Z,62.13
2024-04-24T02:53:20.287Z,62.37
2024-04-24T02:55:48.385Z,62.16
2024-04-24T02:58:16.139Z,62.40
2024-04-24T03:00:44.002Z,62.18
2024-04-24T03:03:12.403Z,64.02
2024-04-24T03:05:40.493Z,62.89
2024-04-24T03:08:08.420Z,62.68
2024-04-24T03:10:36.355Z,63.29
2024-04-24T03:13:04.698Z,63.76
2024-04-24T03:15:32.454Z,64.57
2024-04-24T03:18:00.518Z,64.70
2024-04-24T03:20:28.508Z,64.46
2024-04-24T03:22:56.451Z,64.20
2024-04-24T03:25:24.334Z,64.01
2024-04-24T03:27:52.300Z,64.24
2024-04-24T03:30:20.140Z,64.29
2024-04-24T03:32:48.307Z,63.98
2024-04-24T03:35:16.319Z,63.93
2024-04-24T03:37:44.255Z,64.05
2024-04-24T03:40:12.495Z,64.10
2024-04-24T03:42:40.294Z,63.81
2024-04-24T03:45:08.093Z,62.86
2024-04-24T03:47:36.249Z,62.07
2024-04-24T03:50:04.841Z,62.97
2024-04-24T03:52:32.619Z,63.14
2024-04-24T03:55:00.403Z,63.29
2024-04-24T03:57:28.151Z,62.62
2024-04-24T03:59:56.095Z,62.91
2024-04-24T04:02:23.997Z,62.39
2024-04-24T04:04:52.006Z,63.40
2024-04-24T04:07:19.954Z,63.39
2024-04-24T04:09:47.889Z,63.00
2024-04-24T04:12:15.843Z,63.06
2024-04-24T04:14:43.766Z,62.02
2024-04-24T04:17:12.570Z,61.64
2024-04-24T04:19:40.563Z,62.06
2024-04-24T04:22:08.702Z,61.97
2024-04-24T04:24:36.421Z,62.03
2024-04-24T04:27:04.259Z,62.23
2024-04-24T04:29:32.058Z,62.15
2024-04-24T04:31:59.870Z,62.08
2024-04-24T04:34:27.698Z,62.69
2024-04-24T04:36:55.553Z,61.77
2024-04-24T04:39:23.274Z,62.45
2024-04-24T04:41:51.246Z,62.72
2024-04-24T04:44:19.171Z,61.92
2024-04-24T04:46:47.204Z,62.10
2024-04-24T04:49:15.069Z,62.42
2024-04-24T04:51:42.988Z,62.46
2024-04-24T04:54:11.077Z,62.55
2024-04-24T04:56:38.929Z,63.05
2024-04-24T04:59:06.876Z,64.36
2024-04-24T05:01:34.764Z,64.03
2024-04-24T05:04:02.521Z,62.82
2024-04-24T05:06:30.471Z,62.71
2024-04-24T05:08:58.314Z,62.54
2024-04-24T05:11:26.287Z,62.28
2024-04-24T05:13:54.614Z,62.63
2024-04-24T05:16:22.701Z,62.82
2024-04-24T05:18:50.795Z,61.47
2024-04-24T05:21:18.686Z,62.49
2024-04-24T05:23:46.457Z,63.20
2024-04-24T05:26:33.228Z,63.09
2024-04-24T05:29:11.767Z,63.05
2024-04-24T05:31:39.898Z,62.01
2024-04-24T05:34:07.899Z,63.09
2024-04-24T05:36:35.797Z,62.73
2024-04-24T05:39:03.708Z,62.90
2024-04-24T05:41:31.659Z,63.29
2024-04-24T05:44:00.631Z,63.71
2024-04-24T05:46:28.781Z,62.77
2024-04-24T05:48:56.552Z,62.22
2024-04-24T05:51:24.548Z,62.83
2024-04-24T05:53:52.299Z,63.74
2024-04-24T05:56:20.251Z,63.70
2024-04-24T05:58:48.455Z,63.42
2024-04-24T06:01:16.400Z,63.28
2024-04-24T06:03:44.348Z,62.97
2024-04-24T06:06:12.214Z,64.92
2024-04-24T06:08:40.120Z,66.06
2024-04-24T06:11:09.968Z,65.95
2024-04-24T06:13:37.915Z,65.96
2024-04-24T06:16:06.636Z,65.73
2024-04-24T06:18:34.578Z,65.64
2024-04-24T06:21:03.121Z,65.29
2024-04-24T06:23:31.030Z,65.18
2024-04-24T06:25:59.369Z,64.69
2024-04-24T06:28:27.124Z,64.47
2024-04-24T06:30:54.876Z,64.97
2024-04-24T06:33:22.806Z,64.85
2024-04-24T06:35:50.829Z,65.44
2024-04-24T06:38:20.699Z,65.78
2024-04-24T06:40:48.637Z,65.64
2024-04-24T06:43:16.765Z,65.52
2024-04-24T06:45:44.549Z,65.38
2024-04-24T06:48:12.746Z,65.90
2024-04-24T06:50:41.878Z,65.63
2024-04-24T06:53:09.709Z,65.26
2024-04-24T06:55:38.608Z,65.21
2024-04-24T06:58:06.834Z,64.71
2024-04-24T07:00:34.709Z,63.64
2024-04-24T07:03:04.562Z,63.49
2024-04-24T07:05:33.449Z,62.99
2024-04-24T07:08:02.814Z,62.75
2024-04-24T07:10:30.548Z,62.54
2024-04-24T07:12:58.318Z,62.43
2024-04-24T07:15:26.207Z,62.90
2024-04-24T07:17:54.272Z,63.42
2024-04-24T07:20:22.385Z,63.26
2024-04-24T07:22:51.158Z,63.04
2024-04-24T07:25:19.021Z,63.14
2024-04-24T07:27:48.109Z,63.09
2024-04-24T07:30:16.138Z,62.67
2024-04-24T07:32:44.017Z,62.29
2024-04-24T07:35:11.975Z,61.44
2024-04-24T07:37:39.786Z,60.88
2024-04-24T07:40:08.956Z,62.04
2024-04-24T07:42:37.232Z,62.11
2024-04-24T07:45:05.926Z,61.90
2024-04-24T07:47:33.858Z,61.17
2024-04-24T07:50:02.510Z,60.89
2024-04-24T07:52:30.479Z,60.51
2024-04-24T07:54:58.275Z,60.19
2024-04-24T07:57:26.059Z,60.19
2024-04-24T07:59:54.074Z,59.91
2024-04-24T08:02:21.941Z,60.73
2024-04-24T08:04:50.991Z,61.09
2024-04-24T08:07:18.989Z,61.60
2024-04-24T08:09:46.921Z,61.74
2024-04-24T08:12:14.952Z,61.63
2024-04-24T08:14:42.959Z,60.93
2024-04-24T08:17:10.804Z,60.90
2024-04-24T08:19:38.731Z,61.47
2024-04-24T08:22:06.631Z,61.69
2024-04-24T08:24:34.441Z,60.66
2024-04-24T08:27:02.371Z,60.67
2024-04-24T08:29:31.200Z,61.03
2024-04-24T08:31:59.613Z,60.73
2024-04-24T08:34:27.466Z,60.59
2024-04-24T08:36:55.271Z,60.01
2024-04-24T08:39:23.313Z,59.82
2024-04-24T08:41:53.246Z,59.57
2024-04-24T08:44:21.916Z,59.69
2024-04-24T08:46:49.830Z,58.37
2024-04-24T08:49:17.795Z,57.63
2024-04-24T08:51:45.652Z,59.90
2024-04-24T08:54:19.283Z,63.82
2024-04-24T08:57:03.219Z,63.57
2024-04-24T08:59:32.540Z,63.21
2024-04-24T09:02:10.796Z,61.19
2024-04-24T09:04:49.000Z,61.37
2024-04-24T09:07:19.695Z,62.20
2024-04-24T09:09:47.888Z,61.60
2024-04-24T09:12:16.410Z,60.47
2024-04-24T09:14:46.025Z,58.48
2024-04-24T09:17:14.028Z,57.46
2024-04-24T09:19:43.321Z,60.49
2024-04-24T09:22:11.124Z,63.53
2024-04-24T09:24:39.225Z,65.22
2024-04-24T09:27:07.115Z,64.33
2024-04-24T09:29:35.049Z,63.32
2024-04-24T09:32:03.208Z,62.32
2024-04-24T09:34:32.445Z,60.57
2024-04-24T09:37:00.286Z,60.16
2024-04-24T09:39:28.478Z,59.50
2024-04-24T09:41:56.212Z,58.34
2024-04-24T09:44:29.719Z,59.58
2024-04-24T09:46:57.900Z,63.15
2024-04-24T09:49:25.677Z,62.81
2024-04-24T09:51:53.940Z,61.29
2024-04-24T09:54:22.438Z,60.27
2024-04-24T09:56:52.222Z,60.30
2024-04-24T09:59:19.957Z,60.25
2024-04-24T10:01:56.917Z,60.24
2024-04-24T10:04:24.690Z,60.13
2024-04-24T10:06:52.732Z,59.97
2024-04-24T10:09:24.555Z,59.94
2024-04-24T10:11:57.829Z,59.72
2024-04-24T10:14:26.199Z,57.87
2024-04-24T10:16:54.253Z,60.32
2024-04-24T10:19:22.174Z,63.10
2024-04-24T10:21:50.166Z,62.75
2024-04-24T10:24:18.044Z,62.32
2024-04-24T10:26:46.063Z,61.20
2024-04-24T10:29:17.477Z,59.65
2024-04-24T10:31:46.303Z,58.57
2024-04-24T10:34:14.313Z,60.50
2024-04-24T10:36:42.708Z,63.88
2024-04-24T10:39:11.390Z,63.59
2024-04-24T10:41:39.232Z,61.51
2024-04-24T10:44:10.936Z,60.48
2024-04-24T10:46:43.780Z,58.73
2024-04-24T10:49:11.694Z,58.26
2024-04-24T10:51:47.234Z,62.91
2024-04-24T10:54:15.565Z,63.90
2024-04-24T10:56:44.743Z,59.73
2024-04-24T10:59:12.853Z,57.55
2024-04-24T11:01:52.442Z,59.84
2024-04-24T11:04:26.995Z,62.23
2024-04-24T11:06:55.672Z,65.55
2024-04-24T11:09:25.072Z,62.50
2024-04-24T11:11:54.787Z,60.48
2024-04-24T11:14:22.867Z,57.16
2024-04-24T11:16:58.052Z,58.89
2024-04-24T11:19:26.026Z,60.31
2024-04-24T11:21:54.116Z,64.44
2024-04-24T11:24:32.371Z,63.38
2024-04-24T11:27:01.205Z,61.61
2024-04-24T11:29:38.870Z,59.67
2024-04-24T11:32:07.080Z,57.18
2024-04-24T11:34:36.591Z,58.80
2024-04-24T11:37:04.411Z,59.39
2024-04-24T11:39:32.219Z,63.84
2024-04-24T11:42:00.413Z,65.33
2024-04-24T11:44:29.531Z,63.28
2024-04-24T11:46:58.144Z,61.46
2024-04-24T11:49:26.645Z,58.43
2024-04-24T11:51:55.253Z,57.07
2024-04-24T11:54:23.087Z,59.09
2024-04-24T11:56:51.391Z,62.52
2024-04-24T11:59:21.435Z,65.37
2024-04-24T12:01:49.223Z,63.40
2024-04-24T12:04:17.180Z,61.34
2024-04-24T12:06:46.266Z,60.38
2024-04-24T12:09:15.906Z,58.08
2024-04-24T12:11:45.725Z,57.92
2024-04-24T12:14:17.478Z,58.88
2024-04-24T12:16:45.999Z,62.07
2024-04-24T12:19:13.819Z,63.31
2024-04-24T12:21:43.109Z,60.37
2024-04-24T12:24:11.019Z,56.74
2024-04-24T12:26:39.283Z,57.58
2024-04-24T12:29:07.069Z,60.30
2024-04-24T12:31:34.976Z,59.58
2024-04-24T12:34:03.156Z,61.16
2024-04-24T12:36:33.097Z,66.15
2024-04-24T12:39:01.059Z,63.18
2024-04-24T12:41:28.973Z,57.84
2024-04-24T12:43:56.940Z,57.07
2024-04-24T12:46:25.506Z,58.61
2024-04-24T12:48:54.548Z,61.18
2024-04-24T12:51:23.918Z,63.51
2024-04-24T12:53:52.116Z,62.62
2024-04-24T12:56:20.429Z,59.91
2024-04-24T12:58:48.338Z,57.75
2024-04-24T13:01:22.721Z,58.48
2024-04-24T13:03:52.718Z,58.79
2024-04-24T13:06:23.869Z,60.01
2024-04-24T13:08:52.539Z,63.75
2024-04-24T13:11:20.507Z,62.86
2024-04-24T13:13:48.486Z,58.70
2024-04-24T13:16:16.387Z,55.42
2024-04-24T13:18:44.489Z,54.55
2024-04-24T13:21:13.245Z,57.91
2024-04-24T13:23:41.109Z,58.90
2024-04-24T13:26:09.107Z,57.52
2024-04-24T13:28:36.919Z,60.95
2024-04-24T13:31:08.320Z,63.97
2024-04-24T13:33:36.463Z,64.10
2024-04-24T13:36:05.122Z,60.34
2024-04-24T13:38:32.978Z,56.66
2024-04-24T13:41:05.771Z,55.85
2024-04-24T13:43:33.676Z,57.07
2024-04-24T13:46:01.487Z,58.47
2024-04-24T13:48:32.725Z,59.87
2024-04-24T13:51:01.323Z,61.26
2024-04-24T13:53:29.344Z,63.68
2024-04-24T13:55:57.479Z,64.74
2024-04-24T13:58:25.261Z,63.97
2024-04-24T14:00:58.754Z,60.82
2024-04-24T14:03:26.674Z,56.93
2024-04-24T14:05:54.909Z,54.42
2024-04-24T14:08:27.363Z,54.99
2024-04-24T14:10:55.359Z,56.46
2024-04-24T14:13:23.389Z,57.49
2024-04-24T14:15:51.410Z,58.28
2024-04-24T14:18:20.443Z,60.01
2024-04-24T14:20:48.201Z,62.69
2024-04-24T14:23:17.807Z,62.01
2024-04-24T14:25:45.785Z,58.01
2024-04-24T14:28:14.168Z,55.76
2024-04-24T14:30:42.139Z,57.01
2024-04-24T14:33:10.352Z,58.69
2024-04-24T14:35:38.270Z,59.38
2024-04-24T14:38:10.075Z,64.09
2024-04-24T14:40:38.564Z,66.22
2024-04-24T14:43:06.597Z,62.08
2024-04-24T14:45:36.086Z,57.29
2024-04-24T14:48:04.595Z,55.67
2024-04-24T14:50:32.566Z,56.62
2024-04-24T14:53:00.653Z,57.14
2024-04-24T14:55:29.717Z,58.09
2024-04-24T14:57:57.968Z,58.73
2024-04-24T15:00:25.748Z,60.53
2024-04-24T15:02:54.939Z,65.24
2024-04-24T15:05:22.762Z,66.31
2024-04-24T15:07:51.478Z,61.67
2024-04-24T15:10:19.847Z,57.93
2024-04-24T15:12:47.836Z,56.19
2024-04-24T15:15:16.132Z,55.77
2024-04-24T15:17:44.526Z,58.18
2024-04-24T15:20:12.549Z,59.90
2024-04-24T15:22:41.507Z,60.95
2024-04-24T15:25:09.440Z,64.99
2024-04-24T15:27:41.847Z,64.95
2024-04-24T15:30:10.602Z,62.22
2024-04-24T15:32:38.488Z,56.39
2024-04-24T15:35:08.321Z,54.93
2024-04-24T15:37:37.053Z,55.72
2024-04-24T15:40:05.745Z,56.58
2024-04-24T15:42:33.710Z,60.33
2024-04-24T15:45:04.847Z,60.33
2024-04-24T15:47:33.474Z,64.53
2024-04-24T15:50:01.582Z,66.61
2024-04-24T15:52:29.768Z,63.21
2024-04-24T15:54:57.751Z,57.09
2024-04-24T15:57:25.607Z,56.65
2024-04-24T15:59:53.447Z,57.88
2024-04-24T16:02:21.497Z,58.34
2024-04-24T16:04:49.558Z,58.41
2024-04-24T16:07:17.331Z,57.50
2024-04-24T16:09:45.357Z,59.28
2024-04-24T16:12:13.211Z,60.95
2024-04-24T16:14:41.201Z,67.63
2024-04-24T16:17:09.257Z,68.82
2024-04-24T16:19:37.267Z,63.97
2024-04-24T16:22:06.616Z,59.70
2024-04-24T16:24:34.501Z,55.05
2024-04-24T16:27:04.511Z,54.59
2024-04-24T16:29:32.857Z,55.02
2024-04-24T16:32:00.781Z,55.87
2024-04-24T16:34:29.157Z,56.83
2024-04-24T16:36:56.970Z,59.19
2024-04-24T16:39:24.857Z,58.38
2024-04-24T16:41:54.078Z,58.76
2024-04-24T16:44:22.042Z,60.72
2024-04-24T16:46:51.521Z,60.13
2024-04-24T16:49:20.439Z,59.50
2024-04-24T16:51:50.339Z,59.50
2024-04-24T16:54:18.516Z,59.93
2024-04-24T16:56:46.600Z,59.71
2024-04-24T16:59:15.395Z,59.70
2024-04-24T17:01:43.759Z,59.85
2024-04-24T17:04:12.626Z,61.07
2024-04-24T17:06:40.923Z,64.94
2024-04-24T17:09:08.765Z,74.63
2024-04-24T17:11:36.895Z,69.73
2024-04-24T17:14:04.823Z,64.42
2024-04-24T17:16:33.501Z,60.75
2024-04-24T17:19:01.684Z,57.02
2024-04-24T17:21:29.813Z,55.50
2024-04-24T17:23:57.887Z,57.06
2024-04-24T17:26:30.348Z,58.40
2024-04-24T17:29:04.966Z,59.35
2024-04-24T17:31:32.902Z,59.50
2024-04-24T17:34:02.094Z,59.60
2024-04-24T17:36:32.293Z,58.97
2024-04-24T17:39:00.171Z,58.77
2024-04-24T17:41:28.187Z,59.69
2024-04-24T17:43:56.067Z,59.19
2024-04-24T17:46:23.834Z,59.20
2024-04-24T17:48:53.244Z,60.17
2024-04-24T17:51:21.213Z,60.03
2024-04-24T17:53:49.550Z,60.41
2024-04-24T17:56:19.186Z,60.47
2024-04-24T17:58:54.594Z,60.97
2024-04-24T18:01:23.499Z,61.12
2024-04-24T18:03:52.411Z,61.63
2024-04-24T18:06:20.318Z,62.19
2024-04-24T18:08:50.498Z,63.56
2024-04-24T18:11:18.820Z,74.14
2024-04-24T18:13:46.765Z,71.60
2024-04-24T18:16:14.941Z,67.41
2024-04-24T18:18:43.926Z,66.37
2024-04-24T18:21:11.877Z,65.21
2024-04-24T18:23:42.017Z,63.29
2024-04-24T18:26:10.498Z,62.28
2024-04-24T18:28:39.306Z,61.62
2024-04-24T18:31:09.196Z,60.77
2024-04-24T18:33:38.902Z,60.42
2024-04-24T18:36:07.000Z,59.96
2024-04-24T18:38:34.839Z,58.76
2024-04-24T18:41:05.035Z,57.37
2024-04-24T18:43:36.169Z,58.07
2024-04-24T18:46:05.859Z,58.68
2024-04-24T18:48:34.270Z,59.33
2024-04-24T18:51:03.539Z,59.93
2024-04-24T18:53:32.046Z,61.77
2024-04-24T18:56:02.009Z,61.12
2024-04-24T18:58:31.488Z,60.85
2024-04-24T19:01:01.822Z,60.50
2024-04-24T19:03:29.970Z,60.19
2024-04-24T19:05:59.719Z,60.19
2024-04-24T19:08:27.809Z,62.07
2024-04-24T19:10:56.044Z,70.22
2024-04-24T19:13:24.764Z,70.33
2024-04-24T19:15:52.970Z,68.90
2024-04-24T19:18:22.044Z,67.51
2024-04-24T19:20:50.230Z,66.58
2024-04-24T19:23:18.311Z,65.70
2024-04-24T19:25:46.921Z,64.52
2024-04-24T19:28:15.400Z,63.62
2024-04-24T19:30:43.257Z,63.16
2024-04-24T19:33:11.188Z,62.38
2024-04-24T19:35:39.560Z,61.44
2024-04-24T19:38:08.563Z,61.17
2024-04-24T19:40:36.596Z,60.96
2024-04-24T19:43:04.920Z,60.63
2024-04-24T19:45:36.518Z,60.48
2024-04-24T19:48:05.238Z,60.23
2024-04-24T19:50:33.512Z,60.03
2024-04-24T19:53:01.773Z,59.88
2024-04-24T19:55:31.614Z,59.55
2024-04-24T19:58:01.431Z,57.99
2024-04-24T20:00:29.458Z,57.63
2024-04-24T20:02:58.945Z,58.65
2024-04-24T20:05:27.075Z,59.33
2024-04-24T20:07:55.159Z,60.17
2024-04-24T20:10:23.730Z,59.93
2024-04-24T20:12:51.832Z,59.70
2024-04-24T20:15:19.923Z,59.83
2024-04-24T20:17:48.047Z,59.77
2024-04-24T20:20:16.313Z,60.38
2024-04-24T20:22:51.017Z,60.08
2024-04-24T20:25:18.947Z,60.26
2024-04-24T20:27:47.189Z,60.46
2024-04-24T20:30:17.434Z,61.11
2024-04-24T20:32:45.455Z,61.50
2024-04-24T20:35:13.770Z,66.94
2024-04-24T20:37:43.386Z,73.72
2024-04-24T20:40:11.242Z,70.44
2024-04-24T20:42:40.220Z,66.91
2024-04-24T20:45:08.286Z,64.45
2024-04-24T20:47:37.389Z,64.28
2024-04-24T20:50:05.926Z,64.55
2024-04-24T20:52:33.951Z,63.91
2024-04-24T20:55:01.845Z,62.95
2024-04-24T20:57:29.746Z,62.72
2024-04-24T20:59:59.478Z,62.22
2024-04-24T21:02:29.839Z,61.58
2024-04-24T21:04:57.914Z,61.04
2024-04-24T21:07:25.742Z,60.59
2024-04-24T21:09:53.721Z,60.28
2024-04-24T21:12:21.613Z,59.77
2024-04-24T21:14:49.797Z,59.47
2024-04-24T21:17:18.050Z,58.16
2024-04-24T21:19:45.973Z,58.15
2024-04-24T21:22:13.914Z,59.41
2024-04-24T21:24:41.777Z,59.91
2024-04-24T21:27:12.128Z,61.05
2024-04-24T21:29:41.250Z,60.74
2024-04-24T21:32:09.183Z,61.04
2024-04-24T21:34:37.148Z,61.00
2024-04-24T21:37:05.895Z,61.12
2024-04-24T21:39:33.731Z,67.24
2024-04-24T21:42:03.358Z,72.78
2024-04-24T21:44:31.394Z,66.97
2024-04-24T21:46:59.274Z,63.06
2024-04-24T21:49:27.231Z,60.23
2024-04-24T21:51:55.072Z,59.56
2024-04-24T21:54:23.002Z,57.97
2024-04-24T21:56:51.372Z,57.94
2024-04-24T21:59:19.264Z,59.09
2024-04-24T22:01:48.347Z,59.78
2024-04-24T22:04:16.211Z,60.80
2024-04-24T22:06:45.380Z,60.67
2024-04-24T22:09:13.121Z,61.05
2024-04-24T22:11:43.590Z,61.19
2024-04-24T22:14:11.787Z,60.35
2024-04-24T22:16:39.577Z,60.12
2024-04-24T22:19:07.582Z,60.75
2024-04-24T22:21:35.672Z,60.71
2024-04-24T22:24:03.536Z,61.56
2024-04-24T22:26:31.361Z,61.60
2024-04-24T22:28:59.257Z,61.78
2024-04-24T22:31:27.052Z,64.05
2024-04-24T22:33:54.944Z,74.76
2024-04-24T22:36:22.765Z,71.86
2024-04-24T22:38:50.526Z,68.81
2024-04-24T22:41:18.506Z,67.03
2024-04-24T22:43:47.501Z,65.73
2024-04-24T22:46:16.698Z,65.19
2024-04-24T22:48:44.615Z,65.43
2024-04-24T22:51:14.178Z,64.39
2024-04-24T22:53:45.469Z,63.70
2024-04-24T22:56:13.535Z,62.83
2024-04-24T22:58:41.364Z,61.96
2024-04-24T23:01:09.565Z,61.10
2024-04-24T23:03:37.466Z,60.06
2024-04-24T23:06:05.881Z,59.66
2024-04-24T23:08:33.743Z,59.71
2024-04-24T23:11:01.744Z,59.53
2024-04-24T23:13:29.971Z,57.72
2024-04-24T23:15:59.481Z,57.80
2024-04-24T23:18:29.275Z,58.60
2024-04-24T23:20:57.927Z,58.31
2024-04-24T23:23:25.730Z,59.72
2024-04-24T23:25:53.685Z,59.87
2024-04-24T23:28:21.645Z,60.46
2024-04-24T23:30:49.474Z,59.75
2024-04-24T23:33:17.234Z,59.68
2024-04-24T23:35:45.262Z,59.60
2024-04-24T23:38:13.333Z,59.93
2024-04-24T23:40:41.307Z,61.30
2024-04-24T23:43:09.196Z,67.06
2024-04-24T23:45:37.054Z,70.07
2024-04-24T23:48:05.946Z,70.03
2024-04-24T23:50:33.828Z,69.64
2024-04-24T23:53:01.789Z,68.97
2024-04-24T23:55:29.705Z,67.16
2024-04-24T23:57:57.679Z,65.73
